createdAt,value
2023-01-29T00:02:02.150Z,13.50
2023-01-29T00:04:28.794Z,13.23
2023-01-29T00:06:55.380Z,13.67
2023-01-29T00:09:22.018Z,12.87
2023-01-29T00:11:48.614Z,5.87
2023-01-29T00:14:15.261Z,12.57
2023-01-29T00:16:41.910Z,14.03
2023-01-29T00:19:08.573Z,12.47
2023-01-29T00:21:35.394Z,12.73
2023-01-29T00:24:02.270Z,12.43
2023-01-29T00:26:29.032Z,12.57
2023-01-29T00:29:01.964Z,12.30
2023-01-29T00:31:28.810Z,12.43
2023-01-29T00:33:55.507Z,12.83
2023-01-29T00:36:23.199Z,12.00
2023-01-29T00:38:58.717Z,12.47
2023-01-29T00:41:49.061Z,12.13
2023-01-29T00:44:34.845Z,13.77
2023-01-29T00:47:02.023Z,13.13
2023-01-29T00:49:30.164Z,12.87
2023-01-29T00:52:17.139Z,12.70
2023-01-29T00:54:43.742Z,12.13
2023-01-29T00:57:10.583Z,11.80
2023-01-29T00:59:37.559Z,12.23
2023-01-29T01:02:23.158Z,12.10
2023-01-29T01:04:50.069Z,9.20
2023-01-29T01:07:17.182Z,11.57
2023-01-29T01:10:02.547Z,12.00
2023-01-29T01:12:29.254Z,11.23
2023-01-29T01:14:55.858Z,11.03
2023-01-29T01:17:22.736Z,11.13
2023-01-29T01:19:49.538Z,12.70
2023-01-29T01:22:16.611Z,12.10
2023-01-29T01:24:44.074Z,10.87
2023-01-29T01:27:10.810Z,12.10
2023-01-29T01:29:37.470Z,11.60
2023-01-29T01:32:04.485Z,10.77
2023-01-29T01:34:31.245Z,12.10
2023-01-29T01:36:57.844Z,11.43
2023-01-29T01:39:25.099Z,11.60
2023-01-29T01:41:53.594Z,11.60
2023-01-29T01:44:51.314Z,10.57
2023-01-29T01:47:24.124Z,9.90
2023-01-29T01:49:51.260Z,10.17
2023-01-29T01:52:19.732Z,10.30
2023-01-29T01:54:46.570Z,10.93
2023-01-29T01:57:18.322Z,10.27
2023-01-29T01:59:53.600Z,10.57
2023-01-29T02:02:39.589Z,10.17
2023-01-29T02:05:25.948Z,10.40
2023-01-29T02:08:11.437Z,9.37
2023-01-29T02:10:49.381Z,10.10
2023-01-29T02:13:17.849Z,10.27
2023-01-29T02:15:48.598Z,9.87
2023-01-29T02:18:17.786Z,10.30
2023-01-29T02:21:07.867Z,10.23
2023-01-29T02:24:11.311Z,10.27
2023-01-29T02:26:40.922Z,9.80
2023-01-29T02:29:27.158Z,9.90
2023-01-29T02:32:17.250Z,9.73
2023-01-29T02:35:13.430Z,9.93
2023-01-29T02:37:51.413Z,10.17
2023-01-29T02:40:40.327Z,10.30
2023-01-29T02:43:23.489Z,9.63
2023-01-29T02:46:00.438Z,9.90
2023-01-29T02:48:36.100Z,9.80
2023-01-29T02:51:08.656Z,9.33
2023-01-29T02:53:51.057Z,9.30
2023-01-29T02:56:29.990Z,9.60
2023-01-29T02:59:15.287Z,6.97
2023-01-29T03:02:09.050Z,9.23
2023-01-29T03:04:45.599Z,9.43
2023-01-29T03:07:45.369Z,9.70
2023-01-29T03:10:25.011Z,7.10
2023-01-29T03:13:02.725Z,10.03
2023-01-29T03:15:38.956Z,8.33
2023-01-29T03:18:27.630Z,9.53
2023-01-29T03:21:04.057Z,9.60
2023-01-29T03:23:53.628Z,9.83
2023-01-29T03:26:40.935Z,9.70
2023-01-29T03:29:27.785Z,9.50
2023-01-29T03:32:06.482Z,9.40
2023-01-29T03:34:49.222Z,10.30
2023-01-29T03:37:29.283Z,9.83
2023-01-29T03:39:56.145Z,9.57
2023-01-29T03:42:30.211Z,9.20
2023-01-29T03:45:19.985Z,10.40
2023-01-29T03:48:05.289Z,8.77
2023-01-29T03:50:40.539Z,8.80
2023-01-29T03:53:58.970Z,9.37
2023-01-29T03:56:44.049Z,8.37
2023-01-29T03:59:14.715Z,8.97
2023-01-29T04:02:11.964Z,4.83
2023-01-29T04:04:41.684Z,4.87
2023-01-29T04:07:23.661Z,8.90
2023-01-29T04:10:09.161Z,7.93
2023-01-29T04:13:06.388Z,9.00
2023-01-29T04:15:40.047Z,8.17
2023-01-29T04:18:07.014Z,8.47
2023-01-29T04:20:44.767Z,7.93
2023-01-29T04:23:23.702Z,8.10
2023-01-29T04:26:07.081Z,9.00
2023-01-29T04:28:55.830Z,7.80
2023-01-29T04:31:30.851Z,8.30
2023-01-29T04:34:23.393Z,8.23
2023-01-29T04:37:12.213Z,9.03
2023-01-29T04:40:03.398Z,8.93
2023-01-29T04:42:31.990Z,8.77
2023-01-29T04:45:27.817Z,8.67
2023-01-29T04:48:17.543Z,9.27
2023-01-29T04:51:11.444Z,5.67
2023-01-29T04:54:01.609Z,9.50
2023-01-29T04:56:42.043Z,9.67
2023-01-29T04:59:15.000Z,9.63
2023-01-29T05:01:42.569Z,9.53
2023-01-29T05:04:13.300Z,10.00
2023-01-29T05:06:41.400Z,10.07
2023-01-29T05:09:09.265Z,9.50
2023-01-29T05:11:36.942Z,10.00
2023-01-29T05:14:06.712Z,10.10
2023-01-29T05:16:41.955Z,9.83
2023-01-29T05:19:13.517Z,9.77
2023-01-29T05:21:42.883Z,11.13
2023-01-29T05:24:16.655Z,9.77
2023-01-29T05:27:05.445Z,10.40
2023-01-29T05:29:32.040Z,11.00
2023-01-29T05:31:58.692Z,10.03
2023-01-29T05:34:25.557Z,10.17
2023-01-29T05:36:52.256Z,10.70
2023-01-29T05:39:18.843Z,11.00
2023-01-29T05:41:45.584Z,10.63
2023-01-29T05:44:12.624Z,10.87
2023-01-29T05:46:39.541Z,11.50
2023-01-29T05:49:06.412Z,10.87
2023-01-29T05:51:33.077Z,10.83
2023-01-29T05:53:59.706Z,12.03
2023-01-29T05:56:26.443Z,11.17
2023-01-29T05:58:53.079Z,11.90
2023-01-29T06:01:22.617Z,11.17
2023-01-29T06:03:49.235Z,10.87
2023-01-29T06:06:16.014Z,11.97
2023-01-29T06:08:42.894Z,11.40
2023-01-29T06:11:11.738Z,11.53
2023-01-29T06:13:38.871Z,11.20
2023-01-29T06:16:09.077Z,11.47
2023-01-29T06:18:36.775Z,11.10
2023-01-29T06:21:05.251Z,11.93
2023-01-29T06:23:32.736Z,11.27
2023-01-29T06:26:04.682Z,11.20
2023-01-29T06:28:31.466Z,11.60
2023-01-29T06:31:11.557Z,11.43
2023-01-29T06:33:43.080Z,11.17
2023-01-29T06:36:10.011Z,11.60
2023-01-29T06:38:36.593Z,11.53
2023-01-29T06:41:14.451Z,12.10
2023-01-29T06:43:45.123Z,12.13
2023-01-29T06:46:11.808Z,12.03
2023-01-29T06:48:38.427Z,11.60
2023-01-29T06:51:07.674Z,9.50
2023-01-29T06:53:35.608Z,11.97
2023-01-29T06:56:02.268Z,11.77
2023-01-29T06:58:28.930Z,11.60
2023-01-29T07:01:06.342Z,12.10
2023-01-29T07:03:33.072Z,12.17
2023-01-29T07:06:03.068Z,11.47
2023-01-29T07:08:29.733Z,11.70
2023-01-29T07:11:01.335Z,12.13
2023-01-29T07:13:28.287Z,11.17
2023-01-29T07:15:57.731Z,11.90
2023-01-29T07:18:24.353Z,12.23
2023-01-29T07:20:50.915Z,12.00
2023-01-29T07:23:18.046Z,12.07
2023-01-29T07:25:45.183Z,11.77
2023-01-29T07:28:12.018Z,11.67
2023-01-29T07:30:38.753Z,11.37
2023-01-29T07:33:08.052Z,12.27
2023-01-29T07:35:42.580Z,11.70
2023-01-29T07:38:10.810Z,12.07
2023-01-29T07:40:37.521Z,12.07
2023-01-29T07:43:06.541Z,12.70
2023-01-29T07:45:35.399Z,12.13
2023-01-29T07:48:04.212Z,13.10
2023-01-29T07:50:31.653Z,12.73
2023-01-29T07:52:58.513Z,12.90
2023-01-29T07:55:25.348Z,14.30
2023-01-29T07:58:04.051Z,13.73
2023-01-29T08:00:32.177Z,13.80
2023-01-29T08:03:03.485Z,13.80
2023-01-29T08:05:30.320Z,14.63
2023-01-29T08:08:06.186Z,14.73
2023-01-29T08:10:37.844Z,14.60
2023-01-29T08:13:06.203Z,14.67
2023-01-29T08:15:33.499Z,14.57
2023-01-29T08:18:02.138Z,16.60
2023-01-29T08:20:29.010Z,15.40
2023-01-29T08:23:04.368Z,12.90
2023-01-29T08:25:31.327Z,16.57
2023-01-29T08:27:59.046Z,17.10
2023-01-29T08:30:28.947Z,16.93
2023-01-29T08:32:55.841Z,17.20
2023-01-29T08:35:23.001Z,18.07
2023-01-29T08:37:58.199Z,15.13
2023-01-29T08:40:26.149Z,18.83
2023-01-29T08:42:52.779Z,18.43
2023-01-29T08:45:19.440Z,18.70
2023-01-29T08:47:47.435Z,19.27
2023-01-29T08:50:15.123Z,20.33
2023-01-29T08:52:42.955Z,20.83
2023-01-29T08:55:09.942Z,21.53
2023-01-29T08:57:37.887Z,21.27
2023-01-29T09:00:06.165Z,22.53
2023-01-29T09:02:33.035Z,23.87
2023-01-29T09:04:59.654Z,24.47
2023-01-29T09:07:26.287Z,24.50
2023-01-29T09:09:52.876Z,25.57
2023-01-29T09:12:19.504Z,25.30
2023-01-29T09:14:46.146Z,25.20
2023-01-29T09:17:12.787Z,26.07
2023-01-29T09:19:39.393Z,25.23
2023-01-29T09:22:06.018Z,25.20
2023-01-29T09:24:34.852Z,27.13
2023-01-29T09:27:02.026Z,26.23
2023-01-29T09:29:28.629Z,24.97
2023-01-29T09:31:55.298Z,26.77
2023-01-29T09:34:21.911Z,27.07
2023-01-29T09:36:48.524Z,27.43
2023-01-29T09:39:15.128Z,13.80
2023-01-29T09:41:49.419Z,26.77
2023-01-29T09:44:45.433Z,26.13
2023-01-29T09:47:15.371Z,25.03
2023-01-29T09:49:52.623Z,11.90
2023-01-29T09:52:24.763Z,17.80
2023-01-29T09:55:07.188Z,24.03
2023-01-29T09:57:45.703Z,24.27
2023-01-29T10:00:37.299Z,24.70
2023-01-29T10:03:41.796Z,24.80
2023-01-29T10:06:41.032Z,23.30
2023-01-29T10:09:30.565Z,4.10
2023-01-29T10:12:14.785Z,25.73
2023-01-29T10:14:57.801Z,24.67
2023-01-29T10:17:24.346Z,25.60
2023-01-29T10:20:15.800Z,26.40
2023-01-29T10:23:16.546Z,25.97
2023-01-29T10:25:46.171Z,25.97
2023-01-29T10:28:24.012Z,25.67
2023-01-29T10:31:05.740Z,27.10
2023-01-29T10:33:48.780Z,26.60
2023-01-29T10:36:25.942Z,26.37
2023-01-29T10:38:52.983Z,20.13
2023-01-29T10:41:25.748Z,26.07
2023-01-29T10:44:07.900Z,27.10
2023-01-29T10:47:13.725Z,26.77
2023-01-29T10:50:02.260Z,23.67
2023-01-29T10:52:44.356Z,5.53
2023-01-29T10:55:38.955Z,24.27
2023-01-29T10:58:32.854Z,25.33
2023-01-29T11:01:00.208Z,25.57
2023-01-29T11:03:29.367Z,15.27
2023-01-29T11:06:04.089Z,23.73
2023-01-29T11:08:43.013Z,11.77
2023-01-29T11:11:13.285Z,22.30
2023-01-29T11:13:58.377Z,19.37
2023-01-29T11:16:27.203Z,23.17
2023-01-29T11:19:01.381Z,9.03
2023-01-29T11:21:29.429Z,17.40
2023-01-29T11:24:17.156Z,5.77
2023-01-29T11:26:46.839Z,4.80
2023-01-29T11:29:42.814Z,5.37
2023-01-29T11:32:26.249Z,18.20
2023-01-29T11:35:01.493Z,19.73
2023-01-29T11:37:39.317Z,11.10
2023-01-29T11:40:27.691Z,3.50
2023-01-29T11:42:54.572Z,6.10
2023-01-29T11:45:32.817Z,18.40
2023-01-29T11:48:00.360Z,17.53
2023-01-29T11:50:30.004Z,18.03
2023-01-29T11:52:59.243Z,16.40
2023-01-29T11:55:40.911Z,10.57
2023-01-29T11:58:28.733Z,7.80
2023-01-29T12:00:57.177Z,3.60
2023-01-29T12:03:56.062Z,17.30
2023-01-29T12:06:37.099Z,18.13
2023-01-29T12:09:11.298Z,6.20
2023-01-29T12:11:38.259Z,3.47
2023-01-29T12:14:20.264Z,4.70
2023-01-29T12:16:56.265Z,11.53
2023-01-29T12:19:45.904Z,9.80
2023-01-29T12:22:23.409Z,17.47
2023-01-29T12:25:12.561Z,18.13
2023-01-29T12:27:47.949Z,15.23
2023-01-29T12:30:27.216Z,18.47
2023-01-29T12:33:19.935Z,5.83
2023-01-29T12:35:54.801Z,19.17
2023-01-29T12:38:23.200Z,13.73
2023-01-29T12:41:07.451Z,19.43
2023-01-29T12:43:50.600Z,18.80
2023-01-29T12:46:44.264Z,19.67
2023-01-29T12:49:26.325Z,18.77
2023-01-29T12:52:13.548Z,13.70
2023-01-29T12:54:46.972Z,3.63
2023-01-29T12:57:42.391Z,14.43
2023-01-29T13:00:32.053Z,17.50
2023-01-29T13:03:08.064Z,16.13
2023-01-29T13:05:51.761Z,19.00
2023-01-29T13:08:41.362Z,19.07
2023-01-29T13:11:19.620Z,15.73
2023-01-29T13:14:00.561Z,18.30
2023-01-29T13:16:32.491Z,18.80
2023-01-29T13:19:18.028Z,19.30
2023-01-29T13:21:45.642Z,18.57
2023-01-29T13:24:16.326Z,17.77
2023-01-29T13:26:46.215Z,9.30
2023-01-29T13:29:28.167Z,19.83
2023-01-29T13:31:57.952Z,18.07
2023-01-29T13:34:37.404Z,16.47
2023-01-29T13:37:18.568Z,5.40
2023-01-29T13:39:52.244Z,18.13
2023-01-29T13:42:26.165Z,18.10
2023-01-29T13:44:55.913Z,4.70
2023-01-29T13:47:33.593Z,16.77
2023-01-29T13:50:10.326Z,17.80
2023-01-29T13:52:44.555Z,17.87
2023-01-29T13:55:14.279Z,17.77
2023-01-29T13:57:44.031Z,7.50
2023-01-29T14:00:33.718Z,18.37
2023-01-29T14:03:00.301Z,18.30
2023-01-29T14:05:30.078Z,13.90
2023-01-29T14:07:56.623Z,16.73
2023-01-29T14:10:24.283Z,18.53
2023-01-29T14:13:14.991Z,18.50
2023-01-29T14:15:42.673Z,18.90
2023-01-29T14:18:09.261Z,15.90
2023-01-29T14:20:54.045Z,20.13
2023-01-29T14:23:49.156Z,18.97
2023-01-29T14:26:22.028Z,18.13
2023-01-29T14:29:14.455Z,18.87
2023-01-29T14:32:00.282Z,19.67
2023-01-29T14:34:50.948Z,18.93
2023-01-29T14:37:18.749Z,19.87
2023-01-29T14:39:51.693Z,20.40
2023-01-29T14:42:22.541Z,20.27
2023-01-29T14:44:59.073Z,20.20
2023-01-29T14:47:28.450Z,15.20
2023-01-29T14:50:06.853Z,19.30
2023-01-29T14:52:40.147Z,15.47
2023-01-29T14:55:21.061Z,19.77
2023-01-29T14:57:49.055Z,14.70
2023-01-29T15:00:28.663Z,20.77
2023-01-29T15:03:01.983Z,19.50
2023-01-29T15:05:37.440Z,20.27
2023-01-29T15:08:29.914Z,21.07
2023-01-29T15:11:19.294Z,19.67
2023-01-29T15:14:14.542Z,17.13
2023-01-29T15:17:18.565Z,20.10
2023-01-29T15:19:50.237Z,20.00
2023-01-29T15:22:19.655Z,20.77
2023-01-29T15:24:48.244Z,18.73
2023-01-29T15:27:20.171Z,20.83
2023-01-29T15:29:58.247Z,20.87
2023-01-29T15:32:30.100Z,21.03
2023-01-29T15:34:58.832Z,20.80
2023-01-29T15:37:31.780Z,20.87
2023-01-29T15:39:59.466Z,20.27
2023-01-29T15:42:41.147Z,22.20
2023-01-29T15:45:30.930Z,21.00
2023-01-29T15:48:05.406Z,21.33
2023-01-29T15:50:35.374Z,9.87
2023-01-29T15:53:07.135Z,21.97
2023-01-29T15:55:35.436Z,20.97
2023-01-29T15:58:02.258Z,20.63
2023-01-29T16:00:30.318Z,20.67
2023-01-29T16:02:57.783Z,19.97
2023-01-29T16:05:29.442Z,20.03
2023-01-29T16:07:57.674Z,19.93
2023-01-29T16:10:29.903Z,15.07
2023-01-29T16:12:57.608Z,13.40
2023-01-29T16:15:29.892Z,21.50
2023-01-29T16:17:57.049Z,20.00
2023-01-29T16:20:44.513Z,18.93
2023-01-29T16:23:27.980Z,19.67
2023-01-29T16:26:01.408Z,19.57
2023-01-29T16:28:28.288Z,18.40
2023-01-29T16:30:58.311Z,19.23
2023-01-29T16:33:36.811Z,19.03
2023-01-29T16:36:11.523Z,19.60
2023-01-29T16:38:43.065Z,21.00
2023-01-29T16:41:22.122Z,28.50
2023-01-29T16:43:57.526Z,20.77
2023-01-29T16:46:37.255Z,36.43
2023-01-29T16:49:32.937Z,23.47
2023-01-29T16:52:23.037Z,18.73
2023-01-29T16:54:49.913Z,21.27
2023-01-29T16:57:24.617Z,21.30
2023-01-29T16:59:55.510Z,19.27
2023-01-29T17:02:27.207Z,20.97
2023-01-29T17:04:57.296Z,19.77
2023-01-29T17:07:24.254Z,21.97
2023-01-29T17:09:55.780Z,31.13
2023-01-29T17:12:26.092Z,21.17
2023-01-29T17:14:58.960Z,19.27
2023-01-29T17:17:33.478Z,19.90
2023-01-29T17:20:14.183Z,19.33
2023-01-29T17:22:41.144Z,19.73
2023-01-29T17:25:09.540Z,19.50
2023-01-29T17:27:41.071Z,19.03
2023-01-29T17:30:14.481Z,17.13
2023-01-29T17:32:44.010Z,17.97
2023-01-29T17:35:14.156Z,20.60
2023-01-29T17:37:41.238Z,11.17
2023-01-29T17:40:20.017Z,17.40
2023-01-29T17:42:46.944Z,18.77
2023-01-29T17:45:13.577Z,18.10
2023-01-29T17:47:40.418Z,18.53
2023-01-29T17:50:18.814Z,17.57
2023-01-29T17:52:45.470Z,18.53
2023-01-29T17:55:12.164Z,23.53
2023-01-29T17:57:38.745Z,18.73
2023-01-29T18:00:25.931Z,16.33
2023-01-29T18:02:52.681Z,16.63
2023-01-29T18:05:19.708Z,18.30
2023-01-29T18:07:47.909Z,17.30
2023-01-29T18:10:20.397Z,16.77
2023-01-29T18:12:47.386Z,16.90
2023-01-29T18:15:14.412Z,16.80
2023-01-29T18:17:41.692Z,15.73
2023-01-29T18:20:26.452Z,15.87
2023-01-29T18:22:53.226Z,17.37
2023-01-29T18:25:20.487Z,16.73
2023-01-29T18:27:47.522Z,17.40
2023-01-29T18:30:14.940Z,19.20
2023-01-29T18:32:41.605Z,18.77
2023-01-29T18:35:08.944Z,19.33
2023-01-29T18:37:36.221Z,17.73
2023-01-29T18:40:02.887Z,18.50
2023-01-29T18:42:32.107Z,18.17
2023-01-29T18:44:58.829Z,18.47
2023-01-29T18:47:25.456Z,11.77
2023-01-29T18:49:52.206Z,18.47
2023-01-29T18:52:19.046Z,16.63
2023-01-29T18:54:45.648Z,20.27
2023-01-29T18:57:14.573Z,20.23
2023-01-29T18:59:58.851Z,19.73
2023-01-29T19:02:25.687Z,19.53
2023-01-29T19:04:52.484Z,21.77
2023-01-29T19:07:19.165Z,20.53
2023-01-29T19:09:46.865Z,22.80
2023-01-29T19:12:13.501Z,22.73
2023-01-29T19:14:40.133Z,23.70
2023-01-29T19:17:06.732Z,24.07
2023-01-29T19:19:33.428Z,23.57
2023-01-29T19:22:00.284Z,26.70
2023-01-29T19:24:27.534Z,25.27
2023-01-29T19:26:54.275Z,26.60
2023-01-29T19:29:20.976Z,23.27
2023-01-29T19:31:47.837Z,28.93
2023-01-29T19:34:14.608Z,28.47
2023-01-29T19:36:41.360Z,29.03
2023-01-29T19:39:07.980Z,30.87
2023-01-29T19:41:35.019Z,32.67
2023-01-29T19:44:01.661Z,30.33
2023-01-29T19:46:30.134Z,31.83
2023-01-29T19:48:58.516Z,31.83
2023-01-29T19:51:27.600Z,32.03
2023-01-29T19:53:55.647Z,31.67
2023-01-29T19:56:22.246Z,32.83
2023-01-29T19:58:48.871Z,31.83
2023-01-29T20:01:21.115Z,34.50
2023-01-29T20:03:49.219Z,32.93
2023-01-29T20:06:18.353Z,33.97
2023-01-29T20:08:48.094Z,32.37
2023-01-29T20:11:19.811Z,15.70
2023-01-29T20:13:48.536Z,32.77
2023-01-29T20:16:16.507Z,33.57
2023-01-29T20:18:43.343Z,33.70
2023-01-29T20:21:12.725Z,34.80
2023-01-29T20:23:40.103Z,33.23
2023-01-29T20:26:09.555Z,34.97
2023-01-29T20:28:36.539Z,33.53
2023-01-29T20:31:05.327Z,33.93
2023-01-29T20:33:34.575Z,33.80
2023-01-29T20:36:03.936Z,33.77
2023-01-29T20:38:31.581Z,33.63
2023-01-29T20:41:05.872Z,35.07
2023-01-29T20:43:33.099Z,35.00
2023-01-29T20:46:00.556Z,34.43
2023-01-29T20:48:27.327Z,35.23
2023-01-29T20:50:54.217Z,21.10
2023-01-29T20:53:20.821Z,34.67
2023-01-29T20:55:47.646Z,34.27
2023-01-29T20:58:14.523Z,33.60
2023-01-29T21:00:41.327Z,35.50
2023-01-29T21:03:07.929Z,31.23
2023-01-29T21:05:34.629Z,34.43
2023-01-29T21:08:01.281Z,32.53
2023-01-29T21:10:27.888Z,34.27
2023-01-29T21:12:54.556Z,32.87
2023-01-29T21:15:21.540Z,27.10
2023-01-29T21:17:48.279Z,33.83
2023-01-29T21:20:15.257Z,33.30
2023-01-29T21:22:43.828Z,32.77
2023-01-29T21:25:11.059Z,23.83
2023-01-29T21:27:37.817Z,33.57
2023-01-29T21:30:05.044Z,34.10
2023-01-29T21:32:31.753Z,31.57
2023-01-29T21:34:58.357Z,32.07
2023-01-29T21:37:25.016Z,32.97
2023-01-29T21:39:51.626Z,28.60
2023-01-29T21:42:36.795Z,31.40
2023-01-29T21:45:03.938Z,32.47
2023-01-29T21:47:30.532Z,23.13
2023-01-29T21:49:57.123Z,32.17
2023-01-29T21:52:23.788Z,32.50
2023-01-29T21:54:50.973Z,22.17
2023-01-29T21:57:17.732Z,20.17
2023-01-29T21:59:46.847Z,30.53
2023-01-29T22:02:20.532Z,31.10
2023-01-29T22:04:47.235Z,30.33
2023-01-29T22:07:14.406Z,30.17
2023-01-29T22:09:41.079Z,24.63
2023-01-29T22:12:08.639Z,30.73
2023-01-29T22:14:35.676Z,31.77
2023-01-29T22:17:02.393Z,31.70
2023-01-29T22:19:29.367Z,29.67
2023-01-29T22:21:56.176Z,29.57
2023-01-29T22:24:23.614Z,30.57
2023-01-29T22:26:50.516Z,30.10
2023-01-29T22:29:17.597Z,30.67
2023-01-29T22:31:44.472Z,31.33
2023-01-29T22:34:12.374Z,14.57
2023-01-29T22:36:39.225Z,13.47
2023-01-29T22:39:09.462Z,29.07
2023-01-29T22:41:36.548Z,29.50
2023-01-29T22:44:03.406Z,28.13
2023-01-29T22:46:30.056Z,26.00
2023-01-29T22:48:56.793Z,27.67
2023-01-29T22:51:23.710Z,27.23
2023-01-29T22:53:54.818Z,28.53
2023-01-29T22:56:26.836Z,28.50
2023-01-29T22:58:55.599Z,29.27
2023-01-29T23:01:24.541Z,28.10
2023-01-29T23:03:51.381Z,27.83
2023-01-29T23:06:18.670Z,28.17
2023-01-29T23:08:45.281Z,27.50
2023-01-29T23:11:14.848Z,26.23
2023-01-29T23:13:48.511Z,27.20
2023-01-29T23:16:16.409Z,26.20
2023-01-29T23:18:43.891Z,18.50
2023-01-29T23:21:10.956Z,25.03
2023-01-29T23:23:38.062Z,21.17
2023-01-29T23:26:25.362Z,25.17
2023-01-29T23:28:52.595Z,24.80
2023-01-29T23:31:19.375Z,23.63
2023-01-29T23:33:46.064Z,24.77
2023-01-29T23:36:12.931Z,23.20
2023-01-29T23:38:39.923Z,23.43
2023-01-29T23:41:06.596Z,21.53
2023-01-29T23:43:33.577Z,23.53
2023-01-29T23:46:00.202Z,16.53
2023-01-29T23:48:26.823Z,24.00
2023-01-29T23:50:53.550Z,24.50
2023-01-29T23:53:20.217Z,23.60
2023-01-29T23:56:01.678Z,25.77
2023-01-29T23:58:29.499Z,24.80
